Time;durP1;ratioP1;P1;durP2;ratioP2;P2;SDS_P1;SDS_P2;PMS_P1;PMS_P2;Temp;Humidity;BMP_temperature;BMP_pressure;BME280_temperature;BME280_humidity;BME280_pressure;Samples;Min_cycle;Max_cycle;Signal;HPM_P1;HPM_P2
2022/10/02 00:00:20;;;;;;;11.82;9.68;;;9.50;99.90;;;;;;4997851;28;20057;-64
2022/10/02 00:02:54;;;;;;;12.38;8.88;;;9.40;99.90;;;;;;4995142;28;20510;-63
2022/10/02 00:05:27;;;;;;;16.52;10.38;;;9.40;99.90;;;;;;4996722;28;20037;-64
2022/10/02 00:08:17;;;;;;;18.20;10.07;;;9.40;99.90;;;;;;4992146;28;20037;-64
2022/10/02 00:11:23;;;;;;;15.75;8.70;;;9.40;99.90;;;;;;4997406;28;20371;-64
2022/10/02 00:13:55;;;;;;;13.20;10.43;;;9.40;99.90;;;;;;4981459;28;20035;-64
2022/10/02 00:16:35;;;;;;;13.35;9.43;;;9.40;99.90;;;;;;4984711;28;20054;-64
2022/10/02 00:19:01;;;;;;;17.50;10.80;;;9.30;99.90;;;;;;4995042;28;20038;-65
2022/10/02 00:21:54;;;;;;;14.13;8.55;;;9.30;99.90;;;;;;5001121;28;20022;-65
2022/10/02 00:24:25;;;;;;;19.40;10.07;;;9.30;99.90;;;;;;5000927;28;20118;-64
2022/10/02 00:27:26;;;;;;;14.40;11.27;;;9.20;99.90;;;;;;5000913;28;20494;-63
2022/10/02 00:29:54;;;;;;;12.87;11.27;;;9.20;99.90;;;;;;4996984;28;20814;-64
2022/10/02 00:32:45;;;;;;;41.47;15.30;;;9.20;99.90;;;;;;4997241;28;20030;-66
2022/10/02 00:35:45;;;;;;;23.77;12.27;;;9.20;99.90;;;;;;4999299;28;20510;-62
2022/10/02 00:38:40;;;;;;;55.15;14.93;;;9.10;99.90;;;;;;4998133;28;21094;-61
2022/10/02 00:41:43;;;;;;;15.23;11.30;;;9.10;99.90;;;;;;4997035;28;20034;-64
2022/10/02 00:44:30;;;;;;;21.73;12.85;;;9.00;99.90;;;;;;4999494;28;20080;-63
2022/10/02 00:47:10;;;;;;;18.67;13.18;;;9.00;99.90;;;;;;5001911;28;20403;-64
2022/10/02 00:49:43;;;;;;;21.60;14.10;;;9.00;99.90;;;;;;4996546;28;20030;-63
2022/10/02 00:52:21;;;;;;;15.80;12.85;;;9.00;99.90;;;;;;4998218;28;20030;-64
2022/10/02 00:55:11;;;;;;;18.77;14.18;;;8.90;99.90;;;;;;4999818;28;20026;-63
2022/10/02 00:57:56;;;;;;;21.30;16.35;;;8.90;99.90;;;;;;5000363;28;20044;-64
2022/10/02 01:00:24;;;;;;;36.60;16.80;;;8.90;99.90;;;;;;4999836;28;20154;-64
2022/10/02 01:03:11;;;;;;;38.35;16.75;;;9.00;99.90;;;;;;5001251;28;20572;-62
2022/10/02 01:05:38;;;;;;;24.90;16.20;;;9.00;99.90;;;;;;4996703;28;20092;-63
2022/10/02 01:08:05;;;;;;;21.70;15.45;;;9.00;99.90;;;;;;4997019;28;20116;-63
2022/10/02 01:10:31;;;;;;;23.70;13.90;;;9.00;99.90;;;;;;4995082;28;20034;-65
2022/10/02 01:12:57;;;;;;;21.15;14.48;;;9.00;99.90;;;;;;4999366;28;20597;-63
2022/10/02 01:15:36;;;;;;;24.42;14.43;;;9.00;99.90;;;;;;4999624;28;20064;-64
2022/10/02 01:18:02;;;;;;;23.92;14.27;;;9.00;99.90;;;;;;4997401;28;20026;-65
2022/10/02 01:20:40;;;;;;;18.90;13.85;;;8.90;99.90;;;;;;4998355;28;20054;-64
2022/10/02 01:23:30;;;;;;;53.10;18.65;;;8.90;99.90;;;;;;4993938;28;20030;-65
2022/10/02 01:25:57;;;;;;;28.13;14.43;;;8.80;99.90;;;;;;4995410;28;20033;-62
2022/10/02 01:28:23;;;;;;;22.10;13.80;;;8.80;99.90;;;;;;4996514;28;20041;-65
2022/10/02 01:30:53;;;;;;;21.65;13.70;;;8.80;99.90;;;;;;4993642;28;20026;-65
2022/10/02 01:33:19;;;;;;;19.42;13.20;;;8.80;99.90;;;;;;5000138;28;20026;-64
2022/10/02 01:35:45;;;;;;;14.65;12.38;;;8.80;99.90;;;;;;4997748;28;20053;-64
2022/10/02 01:38:15;;;;;;;22.48;14.02;;;8.80;99.90;;;;;;5003794;28;20026;-64
2022/10/02 01:40:41;;;;;;;24.08;14.65;;;8.70;99.90;;;;;;4996182;28;20091;-65
2022/10/02 01:43:23;;;;;;;33.42;15.15;;;8.70;99.90;;;;;;4994997;28;20018;-62
2022/10/02 01:46:17;;;;;;;34.35;15.80;;;8.70;99.90;;;;;;4998065;28;20022;-64
2022/10/02 01:48:48;;;;;;;21.48;13.70;;;8.80;99.90;;;;;;4993432;28;20508;-64
2022/10/02 01:51:28;;;;;;;25.13;14.13;;;8.80;99.90;;;;;;5001297;28;20041;-64
2022/10/02 01:53:57;;;;;;;23.52;12.48;;;8.80;99.90;;;;;;4994819;28;20121;-64
2022/10/02 01:56:42;;;;;;;76.55;17.60;;;8.80;99.90;;;;;;4994593;28;20030;-65
2022/10/02 01:59:48;;;;;;;31.25;13.85;;;8.80;99.90;;;;;;4996855;28;20035;-64
2022/10/02 02:02:20;;;;;;;20.83;13.75;;;8.80;99.90;;;;;;4997691;28;20026;-65
2022/10/02 02:05:01;;;;;;;27.15;15.02;;;8.90;99.90;;;;;;4995110;28;20034;-64
2022/10/02 02:07:44;;;;;;;16.48;13.18;;;8.90;99.90;;;;;;4996512;28;20486;-64
2022/10/02 02:10:16;;;;;;;27.77;12.65;;;8.90;99.90;;;;;;4994025;28;20164;-63
2022/10/02 02:12:50;;;;;;;45.10;15.10;;;8.90;99.90;;;;;;4996193;28;20409;-64
2022/10/02 02:15:27;;;;;;;32.47;14.35;;;8.90;99.90;;;;;;4998219;28;20042;-64
2022/10/02 02:18:33;;;;;;;41.78;14.00;;;8.90;99.90;;;;;;4997486;28;20025;-64
2022/10/02 02:21:05;;;;;;;27.23;11.60;;;8.90;99.90;;;;;;4993615;28;20030;-65
2022/10/02 02:23:34;;;;;;;29.73;12.45;;;8.80;99.90;;;;;;4983452;28;20492;-64
2022/10/02 02:26:11;;;;;;;36.92;14.07;;;8.80;99.90;;;;;;4993535;28;20026;-62
2022/10/02 02:28:42;;;;;;;24.67;11.20;;;8.80;99.90;;;;;;4994517;28;20046;-63
2022/10/02 02:31:10;;;;;;;21.05;11.98;;;8.80;99.90;;;;;;4997213;28;20014;-64
2022/10/02 02:33:42;;;;;;;16.88;11.10;;;8.80;99.90;;;;;;4996013;28;20490;-64
2022/10/02 02:36:12;;;;;;;16.05;11.15;;;8.90;99.90;;;;;;4995395;28;20490;-64
2022/10/02 02:38:55;;;;;;;25.63;11.85;;;8.90;99.90;;;;;;4994814;28;20029;-64
2022/10/02 02:41:27;;;;;;;17.65;9.30;;;8.90;99.90;;;;;;4998900;28;20026;-64
2022/10/02 02:44:01;;;;;;;23.67;11.63;;;9.00;99.90;;;;;;4999885;28;20482;-64
2022/10/02 02:47:02;;;;;;;36.78;10.75;;;9.00;99.90;;;;;;4995378;28;20034;-64
2022/10/02 02:49:28;;;;;;;30.10;11.80;;;9.00;99.90;;;;;;4996564;28;20018;-64
2022/10/02 02:51:55;;;;;;;16.15;9.88;;;9.10;99.90;;;;;;4997556;28;20023;-64
2022/10/02 02:54:33;;;;;;;29.80;12.07;;;9.00;99.90;;;;;;5001580;28;20080;-64
2022/10/02 02:57:01;;;;;;;32.00;11.38;;;9.00;99.90;;;;;;4998570;28;20026;-64
2022/10/02 02:59:30;;;;;;;16.23;10.15;;;9.00;99.90;;;;;;4992650;28;20101;-64
2022/10/02 03:01:56;;;;;;;30.88;12.13;;;9.10;99.90;;;;;;4997256;28;20101;-63
2022/10/02 03:04:21;;;;;;;38.35;13.30;;;9.10;99.90;;;;;;4996411;28;20168;-63
2022/10/02 03:06:50;;;;;;;28.60;13.93;;;9.20;99.90;;;;;;4994668;28;20100;-64
2022/10/02 03:09:19;;;;;;;15.80;11.35;;;9.20;99.90;;;;;;4998853;28;20030;-65
2022/10/02 03:12:08;;;;;;;23.98;12.25;;;9.20;99.90;;;;;;5001741;28;20025;-64
2022/10/02 03:14:48;;;;;;;25.08;12.77;;;9.20;99.90;;;;;;4995191;28;20034;-66
2022/10/02 03:17:33;;;;;;;32.03;14.57;;;9.20;99.90;;;;;;4998372;28;20072;-65
2022/10/02 03:20:05;;;;;;;27.33;14.35;;;9.20;99.90;;;;;;4996909;28;20378;-65
2022/10/02 03:22:34;;;;;;;24.75;13.98;;;9.20;99.90;;;;;;4996657;28;20153;-64
2022/10/02 03:25:35;;;;;;;25.35;14.25;;;9.20;99.90;;;;;;4998301;28;20113;-64
2022/10/02 03:28:08;;;;;;;27.85;14.80;;;9.20;99.90;;;;;;4990934;28;20041;-64
2022/10/02 03:30:36;;;;;;;22.85;12.85;;;9.20;99.90;;;;;;4995809;28;20040;-63
2022/10/02 03:33:04;;;;;;;24.42;12.85;;;9.20;99.90;;;;;;4997111;28;20102;-63
2022/10/02 03:35:31;;;;;;;26.48;14.48;;;9.20;99.90;;;;;;4997575;28;20076;-64
2022/10/02 03:38:02;;;;;;;28.95;14.07;;;9.20;99.90;;;;;;4993770;28;20042;-64
2022/10/02 03:40:28;;;;;;;17.63;13.32;;;9.20;99.90;;;;;;4996983;28;20110;-64
2022/10/02 03:42:57;;;;;;;39.08;14.38;;;9.20;99.90;;;;;;4996848;28;20038;-64
2022/10/02 03:45:23;;;;;;;18.92;10.35;;;9.20;99.90;;;;;;4997124;28;20053;-64
2022/10/02 03:47:49;;;;;;;32.47;12.35;;;9.20;99.90;;;;;;4997750;28;20037;-64
2022/10/02 03:50:15;;;;;;;48.50;14.45;;;9.20;99.90;;;;;;5001108;28;20038;-64
2022/10/02 03:52:41;;;;;;;31.38;11.88;;;9.20;99.90;;;;;;5000717;28;20118;-64
2022/10/02 03:55:35;;;;;;;16.85;10.45;;;9.20;99.90;;;;;;5001114;28;20609;-64
2022/10/02 03:58:08;;;;;;;18.75;11.18;;;9.20;99.90;;;;;;5002492;28;20025;-63
2022/10/02 04:00:42;;;;;;;17.80;10.73;;;9.20;99.90;;;;;;4995713;28;20034;-64
2022/10/02 04:03:20;;;;;;;45.25;14.38;;;9.30;99.90;;;;;;5000855;28;20018;-64
2022/10/02 04:05:51;;;;;;;50.85;14.30;;;9.30;99.90;;;;;;5002874;28;20410;-63
2022/10/02 04:08:23;;;;;;;12.50;9.40;;;9.30;99.90;;;;;;4999229;28;20053;-64
2022/10/02 04:11:08;;;;;;;29.48;11.85;;;9.30;99.90;;;;;;5000598;28;20391;-65
2022/10/02 04:13:57;;;;;;;28.65;11.07;;;9.40;99.90;;;;;;4998919;28;20037;-65
2022/10/02 04:16:28;;;;;;;45.67;11.93;;;9.40;99.90;;;;;;4999920;28;20068;-64
2022/10/02 04:18:54;;;;;;;18.15;10.48;;;9.40;99.90;;;;;;5001503;28;20037;-64
2022/10/02 04:21:22;;;;;;;28.30;12.02;;;9.40;99.90;;;;;;4998801;28;20030;-64
2022/10/02 04:24:41;;;;;;;25.15;11.55;;;9.50;99.90;;;;;;5000750;28;20030;-63
2022/10/02 04:27:21;;;;;;;40.60;11.73;;;9.50;99.90;;;;;;5008560;28;20030;-64
2022/10/02 04:30:05;;;;;;;23.67;11.65;;;9.50;99.90;;;;;;5000651;28;20088;-63
2022/10/02 04:32:35;;;;;;;32.17;12.27;;;9.60;99.90;;;;;;5000003;28;20038;-63
2022/10/02 04:35:12;;;;;;;29.27;12.88;;;9.60;99.90;;;;;;4997953;28;20034;-64
2022/10/02 04:37:59;;;;;;;40.40;12.63;;;9.60;99.90;;;;;;4998377;28;20100;-64
2022/10/02 04:40:49;;;;;;;21.48;10.18;;;9.60;99.90;;;;;;4999653;28;20030;-64
2022/10/02 04:44:00;;;;;;;14.82;10.43;;;9.60;99.90;;;;;;5001790;28;20038;-64
2022/10/02 04:46:46;;;;;;;29.05;11.95;;;9.60;99.90;;;;;;4998661;28;20038;-63
2022/10/02 04:49:30;;;;;;;12.43;9.50;;;9.70;99.90;;;;;;4998762;28;20022;-63
2022/10/02 04:52:08;;;;;;;38.30;11.38;;;9.70;99.90;;;;;;4995795;28;20011;-64
2022/10/02 04:54:42;;;;;;;29.13;10.85;;;9.70;99.90;;;;;;4999442;28;20026;-62
2022/10/02 04:57:17;;;;;;;20.73;11.88;;;9.70;99.90;;;;;;5001806;28;20019;-63
2022/10/02 05:00:00;;;;;;;30.95;11.88;;;9.80;99.90;;;;;;5011617;28;20035;-65
2022/10/02 05:02:56;;;;;;;31.55;13.35;;;9.80;99.90;;;;;;4998452;28;20105;-64
2022/10/02 05:05:21;;;;;;;25.88;12.73;;;9.90;99.90;;;;;;4998110;28;20177;-64
2022/10/02 05:08:11;;;;;;;52.75;25.42;;;9.90;99.90;;;;;;5001291;28;20142;-64
2022/10/02 05:11:02;;;;;;;35.65;15.88;;;9.90;99.90;;;;;;4995321;28;20027;-63
2022/10/02 05:13:27;;;;;;;35.22;13.85;;;9.90;99.90;;;;;;4997160;28;20451;-64
2022/10/02 05:16:27;;;;;;;22.08;11.80;;;10.00;99.90;;;;;;4997531;28;20057;-64
2022/10/02 05:19:21;;;;;;;17.58;12.13;;;10.00;99.90;;;;;;4997952;28;20026;-63
2022/10/02 05:22:10;;;;;;;29.83;12.25;;;10.10;99.90;;;;;;5009068;28;20149;-63
2022/10/02 05:24:48;;;;;;;27.08;12.93;;;10.10;99.90;;;;;;4999679;28;20512;-63
2022/10/02 05:27:44;;;;;;;31.73;12.38;;;10.20;99.90;;;;;;4997497;28;20514;-63
2022/10/02 05:30:17;;;;;;;23.48;13.50;;;10.30;99.90;;;;;;4992727;28;20039;-63
2022/10/02 05:32:45;;;;;;;30.02;13.50;;;10.40;99.90;;;;;;4998012;28;20026;-63
2022/10/02 05:35:20;;;;;;;28.15;13.18;;;10.40;99.90;;;;;;4999682;28;20030;-62
2022/10/02 05:38:07;;;;;;;36.08;14.63;;;10.50;99.90;;;;;;5000278;28;20494;-63
2022/10/02 05:40:43;;;;;;;51.95;14.45;;;10.50;99.90;;;;;;4999603;28;20560;-64
2022/10/02 05:43:17;;;;;;;30.20;12.65;;;10.60;99.90;;;;;;4996762;28;20033;-63
2022/10/02 05:45:53;;;;;;;39.78;15.55;;;10.60;99.90;;;;;;4997559;28;20026;-63
2022/10/02 05:48:24;;;;;;;75.75;15.35;;;10.60;99.90;;;;;;4999490;28;20057;-64
2022/10/02 05:50:57;;;;;;;57.75;16.30;;;10.60;99.90;;;;;;4999626;28;20510;-64
2022/10/02 05:53:22;;;;;;;40.45;12.38;;;10.70;99.90;;;;;;4997801;28;20065;-64
2022/10/02 05:55:54;;;;;;;23.88;11.77;;;10.70;99.90;;;;;;4998033;28;20065;-63
2022/10/02 05:58:49;;;;;;;26.38;11.15;;;10.70;99.90;;;;;;4997600;28;20662;-63
2022/10/02 06:01:26;;;;;;;40.15;13.77;;;10.80;99.90;;;;;;4995811;28;20022;-63
2022/10/02 06:04:16;;;;;;;33.70;12.18;;;10.80;99.90;;;;;;4996233;28;20053;-64
2022/10/02 06:06:53;;;;;;;34.15;12.18;;;10.80;99.90;;;;;;4999795;28;20088;-64
2022/10/02 06:09:24;;;;;;;41.55;12.65;;;10.90;99.90;;;;;;4996828;28;20053;-64
2022/10/02 06:12:09;;;;;;;47.45;12.80;;;10.90;99.90;;;;;;4995260;28;20518;-64
2022/10/02 06:14:46;;;;;;;35.95;12.27;;;11.00;99.90;;;;;;4997102;28;21239;-63
2022/10/02 06:17:20;;;;;;;33.47;10.57;;;11.10;99.90;;;;;;4997624;28;20702;-62
2022/10/02 06:20:11;;;;;;;18.98;9.63;;;11.20;99.90;;;;;;4997802;28;20046;-64
2022/10/02 06:23:02;;;;;;;29.38;9.90;;;11.30;99.90;;;;;;4994670;28;20026;-63
2022/10/02 06:25:51;;;;;;;18.65;9.27;;;11.40;99.90;;;;;;4991849;28;20093;-64
2022/10/02 06:28:24;;;;;;;29.45;10.40;;;11.40;99.90;;;;;;4996774;28;20030;-63
2022/10/02 06:30:59;;;;;;;24.88;8.02;;;11.50;99.90;;;;;;4999916;28;20486;-63
2022/10/02 06:33:29;;;;;;;30.75;9.25;;;11.60;99.90;;;;;;4988178;28;20050;-63
2022/10/02 06:36:06;;;;;;;33.15;8.88;;;11.70;99.90;;;;;;4998349;28;20081;-63
2022/10/02 06:38:47;;;;;;;28.20;9.25;;;11.70;99.90;;;;;;4997507;28;20085;-63
2022/10/02 06:41:23;;;;;;;21.75;8.48;;;11.80;99.90;;;;;;4994086;28;20030;-63
2022/10/02 06:44:01;;;;;;;19.02;8.07;;;11.90;99.90;;;;;;4996102;28;20030;-63
2022/10/02 06:46:54;;;;;;;27.48;8.23;;;11.90;99.90;;;;;;4998847;28;20109;-65
2022/10/02 06:49:51;;;;;;;24.30;8.40;;;11.90;99.90;;;;;;4994922;28;20026;-63
2022/10/02 06:52:19;;;;;;;40.55;8.27;;;12.00;99.90;;;;;;4999198;28;20049;-64
2022/10/02 06:54:53;;;;;;;38.30;19.20;;;12.00;99.90;;;;;;4996013;28;20040;-62
2022/10/02 06:57:48;;;;;;;20.13;7.50;;;11.90;99.90;;;;;;4994636;28;20034;-63
2022/10/02 07:00:20;;;;;;;25.80;7.80;;;12.00;99.90;;;;;;4996110;28;20124;-64
2022/10/02 07:03:24;;;;;;;50.67;9.55;;;11.90;99.90;;;;;;5001088;28;20030;-63
2022/10/02 07:06:09;;;;;;;20.63;7.60;;;12.00;99.90;;;;;;5014295;28;20033;-63
2022/10/02 07:08:37;;;;;;;24.80;6.72;;;12.00;99.90;;;;;;5014351;28;20022;-63
2022/10/02 07:11:09;;;;;;;23.92;7.68;;;12.10;99.90;;;;;;5002694;28;20031;-63
2022/10/02 07:13:54;;;;;;;26.42;7.50;;;12.10;99.90;;;;;;4992813;28;20060;-63
2022/10/02 07:16:48;;;;;;;20.05;7.63;;;12.20;99.90;;;;;;4995998;28;20893;-65
2022/10/02 07:19:39;;;;;;;29.20;7.72;;;12.20;99.90;;;;;;4998171;28;20141;-64
2022/10/02 07:22:20;;;;;;;25.33;6.38;;;12.20;99.90;;;;;;4998348;28;20115;-64
2022/10/02 07:24:57;;;;;;;36.22;6.95;;;12.20;99.90;;;;;;5002851;28;20031;-65
2022/10/02 07:27:32;;;;;;;18.35;6.80;;;12.30;99.90;;;;;;5000810;28;20049;-63
2022/10/02 07:30:07;;;;;;;28.63;7.50;;;12.30;99.90;;;;;;4998567;28;20030;-63
2022/10/02 07:32:51;;;;;;;16.65;6.32;;;12.30;99.90;;;;;;4999374;28;20487;-63
2022/10/02 07:35:44;;;;;;;19.15;7.50;;;12.40;99.90;;;;;;5015718;28;20092;-64
2022/10/02 07:38:43;;;;;;;20.67;5.93;;;12.40;99.90;;;;;;4999241;28;20817;-63
2022/10/02 07:41:33;;;;;;;25.73;6.93;;;12.50;99.90;;;;;;4999537;28;20556;-64
2022/10/02 07:44:17;;;;;;;23.15;7.25;;;12.60;99.90;;;;;;4997192;28;20459;-64
2022/10/02 07:47:22;;;;;;;19.30;5.53;;;12.60;99.90;;;;;;4997442;28;20040;-64
2022/10/02 07:49:55;;;;;;;18.67;5.40;;;12.70;99.90;;;;;;5012383;28;20035;-63
2022/10/02 07:52:38;;;;;;;13.27;4.15;;;12.70;99.90;;;;;;4999335;28;20120;-64
2022/10/02 07:55:24;;;;;;;18.90;5.35;;;12.70;99.90;;;;;;4996408;28;20022;-63
2022/10/02 07:58:04;;;;;;;18.90;5.07;;;12.80;99.90;;;;;;4998581;28;20025;-64
2022/10/02 08:00:49;;;;;;;19.50;4.60;;;12.80;99.90;;;;;;4997126;28;20425;-64
2022/10/02 08:03:21;;;;;;;13.80;3.92;;;13.00;99.90;;;;;;4997425;28;20026;-64
2022/10/02 08:05:55;;;;;;;21.50;4.22;;;13.00;99.90;;;;;;4994264;28;20526;-63
2022/10/02 08:08:42;;;;;;;13.80;4.00;;;13.10;99.90;;;;;;4997136;28;20038;-64
2022/10/02 08:11:36;;;;;;;17.83;5.25;;;13.20;99.90;;;;;;4996375;28;20030;-63
2022/10/02 08:14:24;;;;;;;15.43;3.42;;;13.20;99.90;;;;;;4995655;28;20395;-62
2022/10/02 08:17:07;;;;;;;15.18;3.47;;;13.20;99.90;;;;;;4996429;28;20033;-62
2022/10/02 08:19:39;;;;;;;11.07;3.58;;;13.20;99.90;;;;;;4996184;28;20081;-63
2022/10/02 08:22:16;;;;;;;9.10;3.60;;;13.30;99.90;;;;;;5000497;28;20521;-63
2022/10/02 08:24:49;;;;;;;12.85;3.30;;;13.30;99.90;;;;;;4997395;28;20537;-63
2022/10/02 08:27:18;;;;;;;11.77;3.38;;;13.20;99.90;;;;;;4995510;28;20035;-63
2022/10/02 08:29:54;;;;;;;9.32;3.17;;;13.20;99.90;;;;;;5001250;28;21577;-63
2022/10/02 08:32:21;;;;;;;11.20;3.30;;;13.20;99.90;;;;;;5002241;28;20505;-65
2022/10/02 08:34:47;;;;;;;14.45;3.72;;;13.10;99.90;;;;;;4995497;28;20039;-63
2022/10/02 08:37:32;;;;;;;9.27;4.05;;;13.10;99.90;;;;;;4997626;28;20022;-64
2022/10/02 08:40:41;;;;;;;14.23;4.03;;;13.10;99.90;;;;;;4996774;28;20113;-63
2022/10/02 08:43:18;;;;;;;12.38;3.95;;;13.10;99.90;;;;;;5000778;28;20014;-62
2022/10/02 08:46:25;;;;;;;11.73;3.22;;;13.10;99.90;;;;;;4999609;28;20061;-64
2022/10/02 08:49:15;;;;;;;8.75;3.83;;;13.00;99.90;;;;;;5006970;28;20049;-63
2022/10/02 08:52:14;;;;;;;16.48;4.43;;;13.00;99.90;;;;;;4998989;28;20065;-64
2022/10/02 08:54:58;;;;;;;18.55;4.93;;;13.00;99.90;;;;;;4999177;28;20734;-64
2022/10/02 08:57:32;;;;;;;14.35;4.70;;;12.90;99.90;;;;;;4999525;28;20129;-65
2022/10/02 09:00:46;;;;;;;10.48;4.45;;;13.00;99.90;;;;;;5002358;28;20490;-65
2022/10/02 09:03:44;;;;;;;12.93;4.68;;;13.00;99.90;;;;;;5001499;28;20655;-64
2022/10/02 09:06:21;;;;;;;17.98;4.43;;;13.00;99.90;;;;;;4998881;28;20110;-64
2022/10/02 09:09:07;;;;;;;19.67;4.72;;;13.00;99.90;;;;;;4995374;28;20030;-64
2022/10/02 09:11:49;;;;;;;14.48;3.92;;;13.10;99.90;;;;;;4995841;28;20046;-63
2022/10/02 09:14:20;;;;;;;;;;;13.10;99.90;;;;;;4999549;28;20030;-64
2022/10/02 09:16:52;;;;;;;;;;;13.20;99.90;;;;;;4999855;28;20037;-65
2022/10/02 09:19:57;;;;;;;12.27;3.47;;;13.20;99.90;;;;;;4998998;28;19917;-64
2022/10/02 09:23:01;;;;;;;9.00;4.43;;;13.20;99.90;;;;;;4995495;28;20521;-64
2022/10/02 09:25:48;;;;;;;25.90;4.18;;;13.30;99.90;;;;;;4996212;28;20038;-65
2022/10/02 09:28:16;;;;;;;10.80;3.92;;;13.30;99.90;;;;;;4999499;28;20134;-64
2022/10/02 09:31:11;;;;;;;9.65;3.25;;;13.30;99.90;;;;;;4999964;28;20483;-64
2022/10/02 09:33:49;;;;;;;7.20;2.78;;;13.30;99.90;;;;;;4998273;28;20057;-64
2022/10/02 09:36:33;;;;;;;6.95;2.65;;;13.40;99.90;;;;;;4995339;28;20060;-64
2022/10/02 09:39:11;;;;;;;4.90;2.60;;;13.30;99.90;;;;;;4995418;28;20026;-64
2022/10/02 09:42:14;;;;;;;8.63;3.58;;;13.30;99.90;;;;;;4995618;28;20022;-63
2022/10/02 09:44:57;;;;;;;12.43;3.65;;;13.20;99.90;;;;;;4997911;28;20030;-64
2022/10/02 09:48:04;;;;;;;7.97;2.83;;;13.30;99.90;;;;;;4996987;28;20031;-66
2022/10/02 09:50:41;;;;;;;7.88;2.00;;;13.30;99.90;;;;;;4998711;28;20071;-65
2022/10/02 09:53:43;;;;;;;4.28;2.38;;;13.40;99.90;;;;;;4996765;28;20045;-65
2022/10/02 09:56:33;;;;;;;6.78;2.55;;;13.30;99.90;;;;;;4993035;28;20394;-64
2022/10/02 09:59:20;;;;;;;4.22;2.22;;;13.30;99.90;;;;;;4999191;28;20034;-64
2022/10/02 10:01:48;;;;;;;5.20;2.45;;;13.30;99.90;;;;;;5001112;28;20061;-64
2022/10/02 10:04:48;;;;;;;3.83;1.85;;;13.30;99.90;;;;;;4996868;28;20081;-63
2022/10/02 10:07:22;;;;;;;5.32;2.08;;;13.30;99.90;;;;;;4997743;28;20057;-64
2022/10/02 10:10:18;;;;;;;4.90;1.70;;;13.40;99.90;;;;;;4997640;28;20029;-63
2022/10/02 10:13:08;;;;;;;3.63;1.95;;;13.40;99.90;;;;;;4997243;28;20125;-64
2022/10/02 10:16:01;;;;;;;7.80;1.92;;;13.30;99.90;;;;;;4997015;28;20044;-65
2022/10/02 10:18:46;;;;;;;7.57;1.90;;;13.20;99.90;;;;;;4997425;28;20053;-64
2022/10/02 10:21:30;;;;;;;5.53;1.88;;;13.20;99.90;;;;;;4998116;28;20046;-64
2022/10/02 10:24:33;;;;;;;3.40;1.40;;;13.20;99.90;;;;;;4993391;28;20046;-64
2022/10/02 10:27:37;;;;;;;5.82;1.88;;;13.20;99.90;;;;;;4994057;28;20113;-63
2022/10/02 10:30:28;;;;;;;5.45;1.65;;;13.30;99.90;;;;;;4998409;28;20510;-63
2022/10/02 10:32:55;;;;;;;6.20;1.48;;;13.40;99.90;;;;;;5001450;28;20030;-64
2022/10/02 10:35:27;;;;;;;5.20;1.30;;;13.50;99.90;;;;;;4997952;28;20026;-65
2022/10/02 10:38:32;;;;;;;5.43;1.30;;;13.40;99.90;;;;;;4998148;28;20028;-64
2022/10/02 10:41:04;;;;;;;6.38;1.40;;;13.40;99.90;;;;;;4992832;28;20529;-64
2022/10/02 10:44:04;;;;;;;4.05;1.40;;;13.40;99.90;;;;;;4994916;28;20031;-64
2022/10/02 10:46:30;;;;;;;4.50;1.20;;;13.40;99.90;;;;;;4995706;28;20445;-64
2022/10/02 10:49:34;;;;;;;4.10;1.20;;;13.50;99.90;;;;;;5000406;28;20026;-64
2022/10/02 10:52:31;;;;;;;2.80;1.20;;;13.50;99.90;;;;;;4997375;28;20117;-64
2022/10/02 10:55:17;;;;;;;4.18;1.30;;;13.70;99.90;;;;;;4996624;28;20018;-63
2022/10/02 10:58:13;;;;;;;4.57;1.20;;;13.80;99.90;;;;;;4999442;28;20021;-64
2022/10/02 11:00:50;;;;;;;3.35;1.00;;;14.00;99.90;;;;;;4998979;28;20566;-63
2022/10/02 11:03:33;;;;;;;3.60;1.00;;;13.90;99.90;;;;;;4996277;28;20567;-64
2022/10/02 11:06:29;;;;;;;2.83;0.90;;;13.80;99.90;;;;;;4996268;28;20022;-63
2022/10/02 11:09:39;;;;;;;2.28;0.90;;;13.80;99.90;;;;;;4999431;28;20080;-65
2022/10/02 11:12:21;;;;;;;5.60;1.27;;;13.90;99.90;;;;;;5012133;28;20093;-65
2022/10/02 11:15:11;;;;;;;4.45;1.15;;;14.00;99.90;;;;;;4998272;28;20521;-64
2022/10/02 11:18:16;;;;;;;2.60;1.00;;;14.20;99.90;;;;;;5011894;28;20037;-64
2022/10/02 11:20:45;;;;;;;3.45;1.10;;;14.30;99.90;;;;;;4999391;28;20064;-64
2022/10/02 11:23:39;;;;;;;3.95;0.93;;;14.30;99.90;;;;;;4993477;28;20066;-64
2022/10/02 11:26:43;;;;;;;2.28;0.77;;;14.30;99.90;;;;;;4988421;28;20030;-65
2022/10/02 11:29:32;;;;;;;3.50;0.90;;;14.30;99.90;;;;;;4995992;28;20034;-63
2022/10/02 11:31:58;;;;;;;2.67;0.90;;;14.20;99.90;;;;;;4997011;28;20033;-63
2022/10/02 11:35:09;;;;;;;1.88;0.80;;;14.10;99.90;;;;;;4994151;28;20033;-63
2022/10/02 11:37:57;;;;;;;2.05;0.80;;;14.10;99.90;;;;;;4993213;28;20042;-62
2022/10/02 11:40:45;;;;;;;4.18;1.00;;;14.10;99.90;;;;;;4999371;28;20044;-64
2022/10/02 11:43:28;;;;;;;1.55;0.77;;;14.00;99.90;;;;;;4996418;28;20026;-63
2022/10/02 11:46:35;;;;;;;2.25;0.80;;;13.90;99.90;;;;;;4994028;28;20030;-64
2022/10/02 11:49:35;;;;;;;2.78;0.90;;;13.90;99.90;;;;;;4998368;28;20065;-64
2022/10/02 11:52:09;;;;;;;6.60;0.70;;;14.00;99.90;;;;;;4998989;28;20447;-64
2022/10/02 11:54:59;;;;;;;4.68;1.00;;;14.00;99.90;;;;;;4999248;28;20018;-64
2022/10/02 11:57:55;;;;;;;2.78;0.80;;;13.90;99.90;;;;;;4996411;28;20056;-64
2022/10/02 12:00:54;;;;;;;4.38;2.47;;;13.80;99.90;;;;;;4995675;28;20045;-63
2022/10/02 12:03:41;;;;;;;3.30;0.82;;;13.70;99.90;;;;;;4994470;28;20774;-64
2022/10/02 12:06:33;;;;;;;4.00;0.85;;;13.60;99.90;;;;;;4996934;28;20026;-64
2022/10/02 12:09:23;;;;;;;2.22;1.00;;;13.50;99.90;;;;;;5001036;28;20478;-63
2022/10/02 12:12:18;;;;;;;4.88;0.80;;;13.40;99.90;;;;;;5001838;28;20521;-63
2022/10/02 12:14:50;;;;;;;2.28;1.00;;;13.40;99.90;;;;;;5001648;28;20061;-63
2022/10/02 12:17:56;;;;;;;2.85;1.02;;;13.30;99.90;;;;;;5000587;28;20105;-63
2022/10/02 12:29:57;;;;;;;2.50;0.95;;;13.30;99.90;;;;;;5000511;28;20042;-64
2022/10/02 12:32:48;;;;;;;3.80;1.13;;;13.40;99.90;;;;;;4997310;28;20030;-63
2022/10/02 12:35:19;;;;;;;1.67;1.10;;;13.50;99.90;;;;;;5000336;28;20037;-63
2022/10/02 12:37:50;;;;;;;2.08;0.90;;;13.60;99.90;;;;;;5001301;28;20030;-64
2022/10/02 12:40:31;;;;;;;2.47;1.00;;;13.70;99.90;;;;;;5001404;28;20046;-63
2022/10/02 12:43:26;;;;;;;0.83;0.83;;;13.80;99.90;;;;;;5001036;28;20065;-63
2022/10/02 12:46:24;;;;;;;2.13;0.98;;;13.70;99.90;;;;;;5005777;28;20281;-62
2022/10/02 12:49:01;;;;;;;2.85;1.00;;;13.70;99.90;;;;;;5000293;28;20039;-64
2022/10/02 12:51:40;;;;;;;1.92;0.93;;;13.70;99.90;;;;;;4995720;28;20064;-63
2022/10/02 12:54:26;;;;;;;3.40;1.08;;;13.70;99.90;;;;;;5001380;28;20121;-64
2022/10/02 12:57:50;;;;;;;2.78;0.90;;;13.60;99.90;;;;;;4998119;28;20454;-64
2022/10/02 13:00:10;;;;;;;2.80;1.13;;;13.70;99.90;;;;;;4998807;28;20493;-64
2022/10/02 13:03:04;;;;;;;1.30;1.00;;;13.70;99.90;;;;;;5001326;28;20027;-63
2022/10/02 13:05:49;;;;;;;4.57;0.98;;;13.70;99.90;;;;;;4995046;28;20018;-64
2022/10/02 13:09:01;;;;;;;1.98;1.30;;;13.80;99.90;;;;;;4996104;28;20019;-63
2022/10/02 13:11:54;;;;;;;3.10;1.60;;;13.80;99.90;;;;;;4997361;28;20090;-65
2022/10/02 13:15:01;;;;;;;1.42;0.90;;;13.80;99.90;;;;;;4999711;28;20452;-64
2022/10/02 13:17:57;;;;;;;3.05;1.17;;;13.80;99.90;;;;;;4996549;28;20586;-64
2022/10/02 13:20:40;;;;;;;1.70;0.80;;;13.90;99.90;;;;;;4993802;28;20422;-63
2022/10/02 13:23:30;;;;;;;1.33;1.02;;;13.90;99.90;;;;;;4999086;28;20113;-63
2022/10/02 13:26:25;;;;;;;1.00;0.90;;;14.00;99.90;;;;;;4996957;28;20053;-64
2022/10/02 13:29:28;;;;;;;0.75;0.60;;;14.00;99.90;;;;;;4998047;28;20056;-62
2022/10/02 13:32:13;;;;;;;0.93;0.60;;;14.00;99.90;;;;;;4997125;28;20100;-65
2022/10/02 13:35:04;;;;;;;2.40;1.23;;;14.00;99.90;;;;;;4997486;28;20034;-64
2022/10/02 13:37:36;;;;;;;1.73;1.02;;;14.00;99.90;;;;;;4998985;28;20073;-64
2022/10/02 13:40:39;;;;;;;1.30;0.77;;;14.10;99.90;;;;;;5001786;28;20014;-63
2022/10/02 13:43:24;;;;;;;0.90;0.70;;;14.10;99.90;;;;;;4996185;28;20494;-64
2022/10/02 13:45:59;;;;;;;1.67;0.90;;;14.20;99.90;;;;;;4997596;28;20076;-63
2022/10/02 13:48:56;;;;;;;1.92;0.80;;;14.30;99.90;;;;;;4995379;28;20034;-64
2022/10/02 13:51:51;;;;;;;1.00;0.73;;;14.30;99.90;;;;;;4966888;28;20039;-64
2022/10/02 13:54:51;;;;;;;2.08;0.70;;;14.30;99.90;;;;;;4978236;28;20034;-63
2022/10/02 13:57:40;;;;;;;1.60;1.10;;;14.30;99.90;;;;;;4974173;28;20479;-64
2022/10/02 14:00:23;;;;;;;1.75;0.70;;;14.40;99.90;;;;;;4977379;28;20575;-65
2022/10/02 14:03:19;;;;;;;1.92;0.80;;;14.40;99.90;;;;;;4994826;28;20033;-64
2022/10/02 14:06:11;;;;;;;2.15;0.90;;;14.40;99.90;;;;;;4999588;28;20073;-63
2022/10/02 14:09:09;;;;;;;0.82;0.65;;;14.40;99.90;;;;;;4996282;28;20030;-64